Time;durP1;ratioP1;P1;durP2;ratioP2;P2;SDS_P1;SDS_P2;PMS_P1;PMS_P2;Temp;Humidity;BMP_temperature;BMP_pressure;BME280_temperature;BME280_humidity;BME280_pressure;Samples;Min_cycle;Max_cycle;Signal;HPM_P1;HPM_P2
2024/01/06 00:00:26;;;;;;;8.02;7.22;;;;;;;;;;5047534;27;98199;-81
2024/01/06 00:02:52;;;;;;;7.32;6.63;;;;;;;;;;5047364;27;99379;-81
2024/01/06 00:05:19;;;;;;;7.63;6.93;;;;;;;;;;5045569;27;99867;-81
2024/01/06 00:07:45;;;;;;;8.10;7.30;;;;;;;;;;5047445;27;98452;-81
2024/01/06 00:10:12;;;;;;;6.50;5.90;;;;;;;;;;5046944;27;99448;-79
2024/01/06 00:12:42;;;;;;;6.80;6.15;;;;;;;;;;5046630;27;99990;-80
2024/01/06 00:15:10;;;;;;;7.32;6.65;;;;;;;;;;5046844;27;98253;-80
2024/01/06 00:17:37;;;;;;;7.55;6.85;;;;;;;;;;5050138;27;99538;-80
2024/01/06 00:20:04;;;;;;;7.75;6.45;;;;;;;;;;5046434;27;98231;-80
2024/01/06 00:22:31;;;;;;;5.28;4.70;;;;;;;;;;5047552;27;99659;-81
2024/01/06 00:24:57;;;;;;;6.00;5.47;;;;;;;;;;5046543;27;100076;-81
2024/01/06 00:27:24;;;;;;;7.95;6.35;;;;;;;;;;5046743;27;98446;-80
2024/01/06 00:29:50;;;;;;;5.95;5.45;;;;;;;;;;5046254;27;99922;-80
2024/01/06 00:32:17;;;;;;;6.22;5.63;;;;;;;;;;5046799;27;99902;-80
2024/01/06 00:34:43;;;;;;;8.00;5.25;;;;;;;;;;5046638;27;99790;-80
2024/01/06 00:37:10;;;;;;;5.70;5.20;;;;;;;;;;5049708;27;99353;-81
2024/01/06 00:39:36;;;;;;;7.47;6.07;;;;;;;;;;5047226;27;98304;-80
2024/01/06 00:42:03;;;;;;;6.45;5.95;;;;;;;;;;5046044;27;99360;-80
2024/01/06 00:44:29;;;;;;;7.15;6.57;;;;;;;;;;5046786;27;100039;-79
2024/01/06 00:46:56;;;;;;;8.32;7.47;;;;;;;;;;5047650;27;99048;-79
2024/01/06 00:49:22;;;;;;;9.13;6.68;;;;;;;;;;5046856;27;99466;-79
2024/01/06 00:51:49;;;;;;;8.73;7.88;;;;;;;;;;5056013;27;99964;-78
2024/01/06 00:54:15;;;;;;;8.60;7.70;;;;;;;;;;5049074;27;98148;-80
2024/01/06 00:56:42;;;;;;;9.27;6.72;;;;;;;;;;5050478;27;99638;-80
2024/01/06 00:59:09;;;;;;;7.65;6.95;;;;;;;;;;5053203;27;98963;-80
2024/01/06 01:01:35;;;;;;;9.05;7.53;;;;;;;;;;5049845;27;99566;-81
2024/01/06 01:04:02;;;;;;;8.50;7.00;;;;;;;;;;5050032;27;100078;-80
2024/01/06 01:06:28;;;;;;;10.68;8.05;;;;;;;;;;5050890;27;98464;-80
2024/01/06 01:08:55;;;;;;;8.40;7.43;;;;;;;;;;5050004;27;99343;-81
2024/01/06 01:11:21;;;;;;;9.57;8.07;;;;;;;;;;5051544;27;100055;-79
2024/01/06 01:13:48;;;;;;;6.68;6.03;;;;;;;;;;5049950;27;98833;-79
2024/01/06 01:16:14;;;;;;;8.82;5.30;;;;;;;;;;5049493;27;99741;-80
2024/01/06 01:18:41;;;;;;;6.10;5.50;;;;;;;;;;5049487;27;99889;-80
2024/01/06 01:21:07;;;;;;;8.38;7.60;;;;;;;;;;5053075;27;98214;-80
2024/01/06 01:23:34;;;;;;;7.93;7.18;;;;;;;;;;5049394;27;100059;-82
2024/01/06 01:26:00;;;;;;;8.23;7.53;;;;;;;;;;5049581;27;98434;-81
2024/01/06 01:28:27;;;;;;;6.97;6.18;;;;;;;;;;5049945;27;99538;-81
2024/01/06 01:30:53;;;;;;;9.32;8.43;;;;;;;;;;5049343;27;100232;-81
2024/01/06 01:33:20;;;;;;;9.20;8.05;;;;;;;;;;5049627;27;98239;-80
2024/01/06 01:35:47;;;;;;;8.82;7.97;;;;;;;;;;5050157;27;99298;-81
2024/01/06 01:38:13;;;;;;;7.50;6.85;;;;;;;;;;5048862;27;100127;-79
2024/01/06 01:40:39;;;;;;;13.98;6.57;;;;;;;;;;5049944;27;98466;-79
2024/01/06 01:43:15;;;;;;;15.63;6.50;;;;;;;;;;5052355;27;99471;-80
2024/01/06 01:45:41;;;;;;;8.13;7.43;;;;;;;;;;5049010;27;98212;-79
2024/01/06 01:48:08;;;;;;;12.20;9.60;;;;;;;;;;5049609;27;99808;-80
2024/01/06 01:50:34;;;;;;;10.18;8.70;;;;;;;;;;5048765;27;100019;-80
2024/01/06 01:53:01;;;;;;;9.93;8.23;;;;;;;;;;5049370;27;99394;-80
2024/01/06 01:55:28;;;;;;;14.75;8.32;;;;;;;;;;5049319;27;99533;-80
2024/01/06 01:57:55;;;;;;;8.90;7.93;;;;;;;;;;5048490;27;99980;-80
2024/01/06 02:00:21;;;;;;;7.95;7.15;;;;;;;;;;5049631;27;98286;-80
2024/01/06 02:02:52;;;;;;;8.40;7.60;;;;;;;;;;5049135;27;99496;-80
2024/01/06 02:05:19;;;;;;;7.20;6.50;;;;;;;;;;5051448;27;98864;-79
2024/01/06 02:07:45;;;;;;;9.48;5.85;;;;;;;;;;5048419;27;99871;-80
2024/01/06 02:10:12;;;;;;;5.57;5.10;;;;;;;;;;5048666;27;99946;-80
2024/01/06 02:12:38;;;;;;;5.13;4.68;;;;;;;;;;5048468;27;98353;-81
2024/01/06 02:15:05;;;;;;;5.90;5.40;;;;;;;;;;5048457;27;99915;-80
2024/01/06 02:17:31;;;;;;;6.00;4.03;;;;;;;;;;5048862;27;100193;-80
2024/01/06 02:19:58;;;;;;;5.88;5.38;;;;;;;;;;5048237;27;98480;-81
2024/01/06 02:22:24;;;;;;;6.07;4.22;;;;;;;;;;5048971;27;99445;-80
2024/01/06 02:24:51;;;;;;;5.22;4.85;;;;;;;;;;5049194;27;100031;-81
2024/01/06 02:27:17;;;;;;;4.82;4.53;;;;;;;;;;5051377;27;98113;-80
2024/01/06 02:29:44;;;;;;;6.95;6.25;;;;;;;;;;5048752;27;99926;-81
2024/01/06 02:32:10;;;;;;;5.93;5.43;;;;;;;;;;5047628;27;98240;-80
2024/01/06 02:34:38;;;;;;;6.05;5.60;;;;;;;;;;5048098;27;99449;-80
2024/01/06 02:37:05;;;;;;;8.20;6.57;;;;;;;;;;5047987;27;99935;-80
2024/01/06 02:39:31;;;;;;;7.22;6.47;;;;;;;;;;5048639;27;98841;-80
2024/01/06 02:41:57;;;;;;;8.13;6.65;;;;;;;;;;5048060;27;99846;-80
2024/01/06 02:44:24;;;;;;;8.45;7.38;;;;;;;;;;5048439;27;100736;-80
2024/01/06 02:46:50;;;;;;;10.10;8.55;;;;;;;;;;5051333;27;98237;-80
2024/01/06 02:49:17;;;;;;;9.82;8.90;;;;;;;;;;5048169;27;100189;-80
2024/01/06 02:51:43;;;;;;;14.13;9.85;;;;;;;;;;5048378;27;99014;-80
2024/01/06 02:54:10;;;;;;;12.23;9.73;;;;;;;;;;5047843;27;100325;-80
2024/01/06 02:56:38;;;;;;;11.88;10.43;;;;;;;;;;5047570;27;100304;-81
2024/01/06 02:59:04;;;;;;;12.85;8.85;;;;;;;;;;5048149;27;98263;-80
2024/01/06 03:01:31;;;;;;;11.15;9.23;;;;;;;;;;5047624;27;98700;-80
2024/01/06 03:03:58;;;;;;;10.35;9.18;;;;;;;;;;5048121;27;100423;-80
2024/01/06 03:06:25;;;;;;;9.95;8.90;;;;;;;;;;5048043;27;98234;-80
2024/01/06 03:08:51;;;;;;;9.90;8.43;;;;;;;;;;5050965;27;99492;-81
2024/01/06 03:11:18;;;;;;;11.00;8.55;;;;;;;;;;5048151;27;98928;-80
2024/01/06 03:13:44;;;;;;;9.20;8.25;;;;;;;;;;5047675;27;99413;-80
2024/01/06 03:16:11;;;;;;;13.00;9.52;;;;;;;;;;5046748;27;100063;-80
2024/01/06 03:18:37;;;;;;;9.55;8.25;;;;;;;;;;5048476;27;98635;-80
2024/01/06 03:21:04;;;;;;;7.93;6.70;;;;;;;;;;5046991;27;99839;-80
2024/01/06 03:23:31;;;;;;;9.23;7.95;;;;;;;;;;5047491;27;99985;-80
2024/01/06 03:25:57;;;;;;;8.48;7.55;;;;;;;;;;5047921;27;98232;-80
2024/01/06 03:28:24;;;;;;;9.00;7.75;;;;;;;;;;5048168;27;99737;-80
2024/01/06 03:30:50;;;;;;;7.53;6.72;;;;;;;;;;5050411;27;100001;-79
2024/01/06 03:33:17;;;;;;;8.07;7.32;;;;;;;;;;5047533;27;99818;-80
2024/01/06 03:35:43;;;;;;;9.05;7.55;;;;;;;;;;5047767;27;100603;-80
2024/01/06 03:38:10;;;;;;;10.45;6.93;;;;;;;;;;5047252;27;98217;-80
2024/01/06 03:40:36;;;;;;;9.80;8.00;;;;;;;;;;5048040;27;99190;-80
2024/01/06 03:43:03;;;;;;;7.97;7.05;;;;;;;;;;5047184;27;99823;-79
2024/01/06 03:45:29;;;;;;;10.57;7.35;;;;;;;;;;5046846;27;98276;-79
2024/01/06 03:47:56;;;;;;;8.35;7.55;;;;;;;;;;5047834;27;99899;-81
2024/01/06 03:50:22;;;;;;;8.25;6.88;;;;;;;;;;5046977;27;100451;-80
2024/01/06 03:52:49;;;;;;;12.77;8.48;;;;;;;;;;5051020;27;98261;-79
2024/01/06 03:55:16;;;;;;;10.93;8.23;;;;;;;;;;5047277;27;100202;-81
2024/01/06 03:57:42;;;;;;;9.38;8.40;;;;;;;;;;5047086;27;98597;-79
2024/01/06 04:00:09;;;;;;;10.60;8.43;;;;;;;;;;5047281;27;99609;-80
2024/01/06 04:02:36;;;;;;;9.90;8.88;;;;;;;;;;5047659;27;100022;-79
2024/01/06 04:05:04;;;;;;;9.95;8.30;;;;;;;;;;5046570;27;98233;-79
2024/01/06 04:07:31;;;;;;;11.00;8.35;;;;;;;;;;5047554;27;99614;-80
2024/01/06 04:09:57;;;;;;;9.02;8.13;;;;;;;;;;5046320;27;100211;-80
2024/01/06 04:12:24;;;;;;;6.55;6.03;;;;;;;;;;5046803;27;98280;-80
2024/01/06 04:14:51;;;;;;;8.07;7.30;;;;;;;;;;5049958;27;99475;-80
2024/01/06 04:17:17;;;;;;;7.93;7.18;;;;;;;;;;5047156;27;98205;-79
2024/01/06 04:19:44;;;;;;;7.10;6.45;;;;;;;;;;5046852;27;99810;-80
2024/01/06 04:22:10;;;;;;;6.68;6.07;;;;;;;;;;5046770;27;100544;-81
2024/01/06 04:24:38;;;;;;;7.20;6.50;;;;;;;;;;5047625;27;98060;-80
2024/01/06 04:27:05;;;;;;;7.05;6.28;;;;;;;;;;5050376;27;99841;-80
2024/01/06 04:29:31;;;;;;;10.55;5.20;;;;;;;;;;5050511;27;99601;-79
2024/01/06 04:31:58;;;;;;;7.22;6.63;;;;;;;;;;5050695;27;98704;-80
2024/01/06 04:34:24;;;;;;;6.95;6.25;;;;;;;;;;5048663;27;98865;-80
2024/01/06 04:36:51;;;;;;;4.40;4.00;;;;;;;;;;5053458;27;98256;-80
2024/01/06 04:39:17;;;;;;;8.00;6.40;;;;;;;;;;5050500;27;99932;-79
2024/01/06 04:41:44;;;;;;;9.05;6.55;;;;;;;;;;5050226;27;100569;-80
2024/01/06 04:44:10;;;;;;;5.25;4.70;;;;;;;;;;5050301;27;98215;-79
2024/01/06 04:46:36;;;;;;;5.32;4.93;;;;;;;;;;5050314;27;99363;-79
2024/01/06 04:49:03;;;;;;;7.70;6.93;;;;;;;;;;5049448;27;99592;-79
2024/01/06 04:51:30;;;;;;;10.48;7.65;;;;;;;;;;5051013;27;98077;-79
2024/01/06 04:53:57;;;;;;;9.60;6.63;;;;;;;;;;5050914;27;99351;-80
2024/01/06 04:56:23;;;;;;;6.75;5.57;;;;;;;;;;5055364;27;100120;-80
2024/01/06 04:58:50;;;;;;;8.27;5.55;;;;;;;;;;5055485;27;99490;-80
2024/01/06 05:01:16;;;;;;;6.20;5.70;;;;;;;;;;5055606;27;99994;-78
2024/01/06 05:03:43;;;;;;;6.53;6.03;;;;;;;;;;5054194;27;98057;-79
2024/01/06 05:06:10;;;;;;;12.38;5.97;;;;;;;;;;5053523;27;99660;-78
2024/01/06 05:08:41;;;;;;;7.55;6.53;;;;;;;;;;5053611;27;98816;-78
2024/01/06 05:11:07;;;;;;;6.40;5.82;;;;;;;;;;5052163;27;98691;-80
2024/01/06 05:13:34;;;;;;;6.25;5.78;;;;;;;;;;5054261;27;98530;-79
2024/01/06 05:16:00;;;;;;;7.00;6.40;;;;;;;;;;5049281;27;99812;-79
2024/01/06 05:18:27;;;;;;;7.57;6.78;;;;;;;;;;5054410;27;98299;-80
2024/01/06 05:20:54;;;;;;;12.95;5.68;;;;;;;;;;5051076;27;100731;-80
2024/01/06 05:23:21;;;;;;;7.28;6.57;;;;;;;;;;5049145;27;98733;-79
2024/01/06 05:25:47;;;;;;;8.02;7.10;;;;;;;;;;5049950;27;99447;-80
2024/01/06 05:28:13;;;;;;;8.20;7.40;;;;;;;;;;5048896;27;99224;-80
2024/01/06 05:30:40;;;;;;;5.35;4.65;;;;;;;;;;5049445;27;98332;-79
2024/01/06 05:33:09;;;;;;;7.72;7.05;;;;;;;;;;5049568;27;99663;-79
2024/01/06 05:35:39;;;;;;;;;;;;;;;;;;5049459;27;100508;-79
2024/01/06 05:38:05;;;;;;;9.88;6.68;;;;;;;;;;5047775;27;123096;-79
2024/01/06 05:40:32;;;;;;;12.75;8.85;;;;;;;;;;5052970;27;99423;-80
2024/01/06 05:42:58;;;;;;;9.10;8.15;;;;;;;;;;5048640;27;98280;-79
2024/01/06 05:45:25;;;;;;;7.78;7.07;;;;;;;;;;5049120;27;98145;-79
2024/01/06 05:47:56;;;;;;;12.55;9.18;;;;;;;;;;5048627;27;100246;-80
2024/01/06 05:50:22;;;;;;;9.70;8.45;;;;;;;;;;5048862;27;98037;-80
2024/01/06 05:52:49;;;;;;;9.73;8.73;;;;;;;;;;5049624;27;99539;-80
2024/01/06 05:55:15;;;;;;;9.50;8.60;;;;;;;;;;5048988;27;100033;-80
2024/01/06 05:57:42;;;;;;;10.30;7.35;;;;;;;;;;5048772;27;98233;-80
2024/01/06 06:00:09;;;;;;;8.27;7.45;;;;;;;;;;5049651;27;99667;-80
2024/01/06 06:02:38;;;;;;;15.93;8.73;;;;;;;;;;5052741;27;98606;-80
2024/01/06 06:05:05;;;;;;;13.35;7.80;;;;;;;;;;5048914;27;99422;-80
2024/01/06 06:07:32;;;;;;;7.53;6.82;;;;;;;;;;5049360;27;100219;-80
2024/01/06 06:09:58;;;;;;;6.55;6.00;;;;;;;;;;5048951;27;98222;-80
2024/01/06 06:12:25;;;;;;;7.07;6.38;;;;;;;;;;5047812;27;99372;-80
2024/01/06 06:14:51;;;;;;;8.30;6.18;;;;;;;;;;5048441;27;99899;-80
2024/01/06 06:17:18;;;;;;;13.25;6.63;;;;;;;;;;5048849;27;98250;-80
2024/01/06 06:19:44;;;;;;;8.63;7.82;;;;;;;;;;5048539;27;99669;-78
2024/01/06 06:22:11;;;;;;;14.43;8.50;;;;;;;;;;5048499;27;100080;-79
2024/01/06 06:24:37;;;;;;;7.45;6.70;;;;;;;;;;5052536;27;98122;-79
2024/01/06 06:27:04;;;;;;;10.65;8.43;;;;;;;;;;5048037;27;100214;-79
2024/01/06 06:29:30;;;;;;;7.32;5.68;;;;;;;;;;5049273;27;98297;-79
2024/01/06 06:31:57;;;;;;;9.38;8.40;;;;;;;;;;5048079;27;99296;-78
2024/01/06 06:34:23;;;;;;;12.95;8.30;;;;;;;;;;5048716;27;100062;-79
2024/01/06 06:36:50;;;;;;;8.68;7.38;;;;;;;;;;5047969;27;98233;-79
2024/01/06 06:39:18;;;;;;;16.05;8.63;;;;;;;;;;5047770;27;99797;-79
2024/01/06 06:41:44;;;;;;;9.52;8.13;;;;;;;;;;5048648;27;100750;-79
2024/01/06 06:44:11;;;;;;;13.70;8.52;;;;;;;;;;5051733;27;98018;-79
2024/01/06 06:46:37;;;;;;;10.73;7.85;;;;;;;;;;5047900;27;100295;-79
2024/01/06 06:49:04;;;;;;;10.50;7.90;;;;;;;;;;5047042;27;98229;-79
2024/01/06 06:51:31;;;;;;;7.18;6.25;;;;;;;;;;5048364;27;99731;-79
2024/01/06 06:53:58;;;;;;;8.93;7.72;;;;;;;;;;5047977;27;100071;-79
2024/01/06 06:56:25;;;;;;;13.00;8.07;;;;;;;;;;5048572;27;98255;-78
2024/01/06 06:58:52;;;;;;;9.50;8.57;;;;;;;;;;5048572;27;99533;-79
2024/01/06 07:01:18;;;;;;;11.45;9.23;;;;;;;;;;5046711;27;99988;-79
2024/01/06 07:03:45;;;;;;;12.18;7.40;;;;;;;;;;5048100;27;98244;-79
2024/01/06 07:06:12;;;;;;;5.95;5.45;;;;;;;;;;5051340;27;99673;-79
2024/01/06 07:08:39;;;;;;;10.38;8.43;;;;;;;;;;5047275;27;98260;-79
2024/01/06 07:11:05;;;;;;;6.63;5.90;;;;;;;;;;5047897;27;99958;-80
2024/01/06 07:13:32;;;;;;;9.40;6.22;;;;;;;;;;5048129;27;99902;-79
2024/01/06 07:15:58;;;;;;;8.55;7.15;;;;;;;;;;5047134;27;98256;-80
2024/01/06 07:18:42;;;;;;;6.10;5.50;;;;;;;;;;5048472;27;99377;-80
2024/01/06 07:21:09;;;;;;;7.35;6.65;;;;;;;;;;5047050;27;99953;-80
2024/01/06 07:23:36;;;;;;;6.28;5.68;;;;;;;;;;5048114;27;98308;-81
2024/01/06 07:26:02;;;;;;;6.15;5.63;;;;;;;;;;5047035;27;99465;-80
2024/01/06 07:28:29;;;;;;;7.65;6.72;;;;;;;;;;5050635;27;99844;-79
2024/01/06 07:30:55;;;;;;;11.40;6.13;;;;;;;;;;5047637;27;99487;-80
2024/01/06 07:33:22;;;;;;;5.03;4.53;;;;;;;;;;5047908;27;100036;-80
2024/01/06 07:35:49;;;;;;;7.32;6.63;;;;;;;;;;5046688;27;98244;-80
2024/01/06 07:38:16;;;;;;;7.22;4.70;;;;;;;;;;5047759;27;99376;-80
2024/01/06 07:40:44;;;;;;;7.25;5.47;;;;;;;;;;5047846;27;99968;-80
2024/01/06 07:43:10;;;;;;;4.88;4.50;;;;;;;;;;5046925;27;98214;-79
2024/01/06 07:45:37;;;;;;;6.47;5.20;;;;;;;;;;5047574;27;99439;-80
2024/01/06 07:48:04;;;;;;;9.23;4.85;;;;;;;;;;5046966;27;99898;-81
2024/01/06 07:50:31;;;;;;;6.55;5.07;;;;;;;;;;5049695;27;99404;-81
2024/01/06 07:52:58;;;;;;;6.78;6.18;;;;;;;;;;5047131;27;99944;-80
2024/01/06 07:55:24;;;;;;;5.18;4.68;;;;;;;;;;5047831;27;98205;-80
2024/01/06 07:57:50;;;;;;;6.70;6.10;;;;;;;;;;5046827;27;99710;-80
2024/01/06 08:00:17;;;;;;;6.75;6.25;;;;;;;;;;5046559;27;100264;-81
2024/01/06 08:02:44;;;;;;;5.97;5.47;;;;;;;;;;5047767;27;98283;-81
2024/01/06 08:05:11;;;;;;;5.72;5.13;;;;;;;;;;5046562;27;99421;-80
2024/01/06 08:07:37;;;;;;;6.97;6.30;;;;;;;;;;5047677;27;99867;-80
2024/01/06 08:10:04;;;;;;;7.70;6.75;;;;;;;;;;5047467;27;98953;-80
2024/01/06 08:12:31;;;;;;;7.32;5.13;;;;;;;;;;5049769;27;99689;-80
2024/01/06 08:14:58;;;;;;;12.13;6.03;;;;;;;;;;5045757;27;98258;-80
2024/01/06 08:17:24;;;;;;;9.05;6.82;;;;;;;;;;5046494;27;99588;-81
2024/01/06 08:19:51;;;;;;;8.77;5.90;;;;;;;;;;5047222;27;100187;-81
2024/01/06 08:22:17;;;;;;;9.85;5.43;;;;;;;;;;5046992;27;98233;-81
2024/01/06 08:24:44;;;;;;;7.20;6.22;;;;;;;;;;5046710;27;99458;-79
2024/01/06 08:27:10;;;;;;;5.60;4.95;;;;;;;;;;5046542;27;100381;-79
2024/01/06 08:29:37;;;;;;;6.20;5.60;;;;;;;;;;5047311;27;98218;-79
2024/01/06 08:32:04;;;;;;;8.55;5.05;;;;;;;;;;5046505;27;99752;-79
2024/01/06 08:34:30;;;;;;;9.57;7.78;;;;;;;;;;5050360;27;100298;-80
2024/01/06 08:36:58;;;;;;;7.78;6.45;;;;;;;;;;5046966;27;99569;-80
2024/01/06 08:39:25;;;;;;;6.45;5.80;;;;;;;;;;5045422;27;99956;-80
2024/01/06 08:41:52;;;;;;;7.35;5.88;;;;;;;;;;5046788;27;98358;-80
2024/01/06 08:44:18;;;;;;;6.18;4.82;;;;;;;;;;5046754;27;99884;-80
2024/01/06 08:46:44;;;;;;;10.25;6.85;;;;;;;;;;5046069;27;99179;-81
2024/01/06 08:49:11;;;;;;;7.43;6.72;;;;;;;;;;5046957;27;99268;-80
2024/01/06 08:51:37;;;;;;;10.38;7.13;;;;;;;;;;5047096;27;99496;-81
2024/01/06 08:54:05;;;;;;;5.10;4.65;;;;;;;;;;5049172;27;99771;-80
2024/01/06 08:56:33;;;;;;;12.88;7.05;;;;;;;;;;5046730;27;98854;-80
2024/01/06 08:58:59;;;;;;;6.93;5.05;;;;;;;;;;5046577;27;100622;-81
2024/01/06 09:01:26;;;;;;;5.53;4.95;;;;;;;;;;5046734;27;99081;-80
2024/01/06 09:03:53;;;;;;;8.43;6.72;;;;;;;;;;5053833;27;98671;-80
2024/01/06 09:06:19;;;;;;;9.95;7.53;;;;;;;;;;5046237;27;99043;-80
2024/01/06 09:08:46;;;;;;;6.97;6.20;;;;;;;;;;5046097;27;98571;-80
2024/01/06 09:11:12;;;;;;;10.80;7.38;;;;;;;;;;5046563;27;99437;-80
2024/01/06 09:13:39;;;;;;;8.65;6.75;;;;;;;;;;5048821;27;99036;-80
2024/01/06 09:16:05;;;;;;;7.65;6.78;;;;;;;;;;5053160;27;98229;-81
2024/01/06 09:18:32;;;;;;;12.27;6.30;;;;;;;;;;5049926;27;100156;-80
2024/01/06 09:20:59;;;;;;;5.68;5.18;;;;;;;;;;5049719;27;98835;-80
2024/01/06 09:23:25;;;;;;;7.40;6.63;;;;;;;;;;5054914;27;99692;-80
2024/01/06 09:25:52;;;;;;;6.22;5.72;;;;;;;;;;5049828;27;99742;-80
2024/01/06 09:28:18;;;;;;;7.32;6.25;;;;;;;;;;5048648;27;98390;-80
2024/01/06 09:30:45;;;;;;;9.55;5.85;;;;;;;;;;5050109;27;99808;-80
2024/01/06 09:33:15;;;;;;;7.35;6.68;;;;;;;;;;5049622;27;100139;-78
2024/01/06 09:35:43;;;;;;;7.97;5.97;;;;;;;;;;5049087;27;99067;-79
2024/01/06 09:38:10;;;;;;;5.72;5.22;;;;;;;;;;5052779;27;99803;-79
2024/01/06 09:40:41;;;;;;;5.05;4.55;;;;;;;;;;5050040;27;98244;-80
2024/01/06 09:43:07;;;;;;;6.85;6.05;;;;;;;;;;5049160;27;99277;-80
2024/01/06 09:45:34;;;;;;;6.25;5.75;;;;;;;;;;5048942;27;100132;-80
2024/01/06 09:48:03;;;;;;;6.00;5.53;;;;;;;;;;5050427;27;98217;-80
2024/01/06 09:50:30;;;;;;;5.28;4.78;;;;;;;;;;5049474;27;99429;-80
2024/01/06 09:53:05;;;;;;;9.15;5.28;;;;;;;;;;5049298;27;100233;-80
2024/01/06 09:55:31;;;;;;;7.50;5.85;;;;;;;;;;5049974;27;98126;-79
2024/01/06 09:57:58;;;;;;;5.63;5.03;;;;;;;;;;5048077;27;99128;-79
2024/01/06 10:00:24;;;;;;;6.28;5.68;;;;;;;;;;5052762;27;100021;-79
2024/01/06 10:02:51;;;;;;;10.95;5.72;;;;;;;;;;5049058;27;99538;-80
2024/01/06 10:05:18;;;;;;;5.32;4.82;;;;;;;;;;5048831;27;100062;-79
2024/01/06 10:07:45;;;;;;;7.10;5.32;;;;;;;;;;5049451;27;98198;-80
2024/01/06 10:10:11;;;;;;;5.20;4.68;;;;;;;;;;5048789;27;99352;-80
2024/01/06 10:12:39;;;;;;;6.15;5.55;;;;;;;;;;5049094;27;99972;-79
2024/01/06 10:15:09;;;;;;;5.63;4.72;;;;;;;;;;5048658;27;98280;-80
2024/01/06 10:17:39;;;;;;;4.28;3.97;;;;;;;;;;5047652;27;99495;-80
2024/01/06 10:20:09;;;;;;;4.90;4.50;;;;;;;;;;5048599;27;100067;-80
2024/01/06 10:22:36;;;;;;;7.13;5.82;;;;;;;;;;5052273;27;98217;-80
2024/01/06 10:25:07;;;;;;;7.20;4.82;;;;;;;;;;5048094;27;100154;-81
2024/01/06 10:27:37;;;;;;;6.65;5.82;;;;;;;;;;5049151;27;98232;-81
2024/01/06 10:30:05;;;;;;;6.25;4.05;;;;;;;;;;5048934;27;99463;-79
2024/01/06 10:32:34;;;;;;;4.15;3.90;;;;;;;;;;5048111;27;100254;-80
2024/01/06 10:35:01;;;;;;;4.82;4.43;;;;;;;;;;5048881;27;98639;-80
2024/01/06 10:37:28;;;;;;;6.75;5.88;;;;;;;;;;5049142;27;99567;-79
2024/01/06 10:40:11;;;;;;;4.78;4.35;;;;;;;;;;5048109;27;100100;-80
2024/01/06 10:42:41;;;;;;;4.88;4.43;;;;;;;;;;5047837;27;98324;-79
2024/01/06 10:45:09;;;;;;;4.50;4.20;;;;;;;;;;5050993;27;99551;-79
2024/01/06 10:47:36;;;;;;;5.30;4.82;;;;;;;;;;5048843;27;98243;-80
2024/01/06 10:50:03;;;;;;;6.68;5.80;;;;;;;;;;5048279;27;99664;-80
2024/01/06 10:52:30;;;;;;;6.63;6.00;;;;;;;;;;5047655;27;100206;-80
2024/01/06 10:54:57;;;;;;;8.38;5.55;;;;;;;;;;5048132;27;98213;-80
2024/01/06 10:57:24;;;;;;;6.90;6.30;;;;;;;;;;5048626;27;99533;-79
2024/01/06 10:59:52;;;;;;;5.90;4.78;;;;;;;;;;5048088;27;100100;-79
2024/01/06 11:02:19;;;;;;;5.75;5.25;;;;;;;;;;5048871;27;98144;-79
2024/01/06 11:04:46;;;;;;;4.93;4.10;;;;;;;;;;5051591;27;99277;-80
2024/01/06 11:07:13;;;;;;;5.22;4.22;;;;;;;;;;5046514;27;98189;-80
2024/01/06 11:09:43;;;;;;;4.28;3.95;;;;;;;;;;5048004;27;99357;-80
2024/01/06 11:12:09;;;;;;;6.85;6.15;;;;;;;;;;5047700;27;100347;-79
2024/01/06 11:14:37;;;;;;;6.40;5.80;;;;;;;;;;5046768;27;98557;-80
2024/01/06 11:17:04;;;;;;;5.78;5.25;;;;;;;;;;5048057;27;99488;-80
2024/01/06 11:19:33;;;;;;;5.47;5.05;;;;;;;;;;5048296;27;99959;-79
2024/01/06 11:22:19;;;;;;;5.75;5.18;;;;;;;;;;5046840;27;99369;-80
2024/01/06 11:24:51;;;;;;;7.65;5.57;;;;;;;;;;5050206;27;99348;-80
2024/01/06 11:27:22;;;;;;;8.02;6.80;;;;;;;;;;5050427;27;99971;-80
2024/01/06 11:29:54;;;;;;;6.18;5.68;;;;;;;;;;5049150;27;99567;-80
2024/01/06 11:32:27;;;;;;;5.22;4.72;;;;;;;;;;5046825;27;100122;-80
2024/01/06 11:34:54;;;;;;;;;;;;;;;;;;5046953;27;98505;-80
2024/01/06 11:37:25;;;;;;;6.10;4.50;;;;;;;;;;5047523;27;129000;-80
2024/01/06 11:39:52;;;;;;;6.53;5.88;;;;;;;;;;5048385;27;100158;-80
2024/01/06 11:42:19;;;;;;;5.25;4.75;;;;;;;;;;5047317;27;98227;-80
2024/01/06 11:44:49;;;;;;;4.63;3.38;;;;;;;;;;5048084;27;99595;-81
2024/01/06 11:47:17;;;;;;;7.60;5.10;;;;;;;;;;5047096;27;99988;-80
2024/01/06 11:49:44;;;;;;;6.75;5.47;;;;;;;;;;5050934;27;98282;-80
2024/01/06 11:52:11;;;;;;;4.95;4.32;;;;;;;;;;5047609;27;100116;-80
2024/01/06 11:54:38;;;;;;;7.22;4.82;;;;;;;;;;5047653;27;98471;-81
2024/01/06 11:57:04;;;;;;;9.60;4.40;;;;;;;;;;5046079;27;99498;-79
2024/01/06 11:59:30;;;;;;;5.28;3.75;;;;;;;;;;5047238;27;99930;-79
2024/01/06 12:01:57;;;;;;;5.68;5.22;;;;;;;;;;5047343;27;98233;-79
2024/01/06 12:04:25;;;;;;;10.25;4.88;;;;;;;;;;5047034;27;99647;-80
2024/01/06 12:06:52;;;;;;;6.30;4.68;;;;;;;;;;5047342;27;99955;-80
2024/01/06 12:09:19;;;;;;;7.10;5.40;;;;;;;;;;5047125;27;98336;-80
2024/01/06 12:11:46;;;;;;;4.82;4.50;;;;;;;;;;5049881;27;99471;-80
2024/01/06 12:14:13;;;;;;;8.30;5.60;;;;;;;;;;5046604;27;98276;-80
2024/01/06 12:16:39;;;;;;;10.35;5.95;;;;;;;;;;5047097;27;99665;-79
2024/01/06 12:19:06;;;;;;;5.57;5.18;;;;;;;;;;5047159;27;99871;-79
2024/01/06 12:21:37;;;;;;;5.43;3.40;;;;;;;;;;5046566;27;98163;-80
2024/01/06 12:24:19;;;;;;;7.93;4.90;;;;;;;;;;5046721;27;100278;-80
2024/01/06 12:26:46;;;;;;;7.20;5.53;;;;;;;;;;5047013;27;100583;-80
2024/01/06 12:29:13;;;;;;;5.80;5.30;;;;;;;;;;5046948;27;98258;-78
2024/01/06 12:31:40;;;;;;;6.60;5.65;;;;;;;;;;5046649;27;99272;-79
2024/01/06 12:34:10;;;;;;;6.25;4.93;;;;;;;;;;5050124;27;99939;-79
2024/01/06 12:36:38;;;;;;;6.07;5.68;;;;;;;;;;5046337;27;98915;-79
2024/01/06 12:39:06;;;;;;;11.23;5.65;;;;;;;;;;5046096;27;100215;-77
2024/01/06 12:41:33;;;;;;;7.10;5.65;;;;;;;;;;5047016;27;98549;-79
2024/01/06 12:44:02;;;;;;;5.95;5.47;;;;;;;;;;5046878;27;99643;-79
2024/01/06 12:46:29;;;;;;;6.72;6.15;;;;;;;;;;5046410;27;99078;-80
2024/01/06 12:48:55;;;;;;;4.93;3.90;;;;;;;;;;5050574;27;98437;-80
2024/01/06 12:51:22;;;;;;;4.55;4.15;;;;;;;;;;5050594;27;98629;-79
2024/01/06 12:53:48;;;;;;;5.97;5.38;;;;;;;;;;5049536;27;100015;-79
2024/01/06 12:56:15;;;;;;;8.13;6.35;;;;;;;;;;5053490;27;98208;-78
2024/01/06 12:58:42;;;;;;;8.65;6.38;;;;;;;;;;5049843;27;100038;-78
2024/01/06 13:01:08;;;;;;;6.25;5.63;;;;;;;;;;5049990;27;98250;-79
2024/01/06 13:03:35;;;;;;;6.53;5.93;;;;;;;;;;5050546;27;99855;-79
2024/01/06 13:06:01;;;;;;;7.85;5.97;;;;;;;;;;5049058;27;99986;-79
2024/01/06 13:08:28;;;;;;;7.75;5.93;;;;;;;;;;5052789;27;98264;-79
2024/01/06 13:10:55;;;;;;;7.22;6.30;;;;;;;;;;5049442;27;99815;-79
2024/01/06 13:13:21;;;;;;;6.38;4.70;;;;;;;;;;5049339;27;100277;-79
2024/01/06 13:15:48;;;;;;;12.27;5.55;;;;;;;;;;5053086;27;98311;-78
2024/01/06 13:18:16;;;;;;;6.55;5.85;;;;;;;;;;5049570;27;99944;-79
2024/01/06 13:20:43;;;;;;;6.55;5.95;;;;;;;;;;5049361;27;98177;-79
2024/01/06 13:23:11;;;;;;;7.80;6.50;;;;;;;;;;5049292;27;98394;-80
2024/01/06 13:25:39;;;;;;;7.35;6.05;;;;;;;;;;5049484;27;98998;-79
2024/01/06 13:28:06;;;;;;;7.57;6.47;;;;;;;;;;5053528;27;98222;-79
2024/01/06 13:30:32;;;;;;;6.43;5.82;;;;;;;;;;5050067;27;99006;-79
2024/01/06 13:32:59;;;;;;;5.05;4.50;;;;;;;;;;5049313;27;99882;-80
2024/01/06 13:35:26;;;;;;;8.20;6.55;;;;;;;;;;5048168;27;98918;-80
2024/01/06 13:37:52;;;;;;;8.43;6.65;;;;;;;;;;5052996;27;99438;-78
2024/01/06 13:40:22;;;;;;;4.25;3.95;;;;;;;;;;5049686;27;98275;-78
2024/01/06 13:42:50;;;;;;;7.63;6.90;;;;;;;;;;5048577;27;99116;-78
2024/01/06 13:45:17;;;;;;;9.52;6.45;;;;;;;;;;5049398;27;100002;-79
2024/01/06 13:47:44;;;;;;;7.85;7.05;;;;;;;;;;5049551;27;98174;-80
2024/01/06 13:50:12;;;;;;;7.18;6.45;;;;;;;;;;5048825;27;99601;-79
2024/01/06 13:52:38;;;;;;;6.47;5.70;;;;;;;;;;5049605;27;100233;-79
2024/01/06 13:55:06;;;;;;;5.60;5.13;;;;;;;;;;5048731;27;98213;-79
2024/01/06 13:57:32;;;;;;;12.00;6.53;;;;;;;;;;5049041;27;99470;-79
2024/01/06 13:59:59;;;;;;;5.93;5.38;;;;;;;;;;5051618;27;100017;-79
2024/01/06 14:02:26;;;;;;;11.40;7.75;;;;;;;;;;5048781;27;99441;-80
2024/01/06 14:04:52;;;;;;;7.72;6.72;;;;;;;;;;5048616;27;98966;-78
2024/01/06 14:07:19;;;;;;;6.10;5.50;;;;;;;;;;5049202;27;98572;-80
2024/01/06 14:09:46;;;;;;;9.20;6.75;;;;;;;;;;5048274;27;98581;-79
2024/01/06 14:12:13;;;;;;;6.55;5.85;;;;;;;;;;5048752;27;99988;-79
2024/01/06 14:14:43;;;;;;;8.35;6.45;;;;;;;;;;5048886;27;98399;-78
2024/01/06 14:17:09;;;;;;;6.47;5.85;;;;;;;;;;5047957;27;98593;-79
2024/01/06 14:19:36;;;;;;;10.82;6.97;;;;;;;;;;5048873;27;101293;-78
2024/01/06 14:22:04;;;;;;;5.28;4.93;;;;;;;;;;5051421;27;98223;-80
2024/01/06 14:24:32;;;;;;;6.30;4.93;;;;;;;;;;5046584;27;98941;-78
2024/01/06 14:26:58;;;;;;;8.52;5.88;;;;;;;;;;5048709;27;98259;-79
2024/01/06 14:29:25;;;;;;;8.60;5.85;;;;;;;;;;5049094;27;99746;-79
2024/01/06 14:31:51;;;;;;;5.50;4.85;;;;;;;;;;5047978;27;100124;-79
2024/01/06 14:34:18;;;;;;;5.28;4.78;;;;;;;;;;5048719;27;98372;-78
2024/01/06 14:36:47;;;;;;;9.35;3.83;;;;;;;;;;5049152;27;99729;-79